sensor_id;sensor_type;location;lat;lon;timestamp;pressure;altitude;pressure_sealevel;temperature;humidity
65754;BME280;52488;47.502;18.940;2022-09-09T00:00:53;97848.28;;;16.31;93.88
65754;BME280;52488;47.502;18.940;2022-09-09T00:02:26;97851.87;;;16.33;94.12
65754;BME280;52488;47.502;18.940;2022-09-09T00:03:29;97854.09;;;16.37;94.12
65754;BME280;52488;47.502;18.940;2022-09-09T00:04:36;97853.31;;;16.34;94.33
65754;BME280;52488;47.502;18.940;2022-09-09T00:07:19;97850.47;;;16.32;94.78
65754;BME280;52488;47.502;18.940;2022-09-09T00:10:34;97843.47;;;16.31;95.04
65754;BME280;52488;47.502;18.940;2022-09-09T00:11:53;97839.09;;;16.26;95.53
65754;BME280;52488;47.502;18.940;2022-09-09T00:13:20;97839.53;;;16.36;95.54
65754;BME280;52488;47.502;18.940;2022-09-09T00:14:37;97837.84;;;16.29;95.35
65754;BME280;52488;47.502;18.940;2022-09-09T00:16:55;97841.25;;;16.28;95.84
65754;BME280;52488;47.502;18.940;2022-09-09T00:20:09;97839.97;;;16.31;95.50
65754;BME280;52488;47.502;18.940;2022-09-09T00:21:05;97842.31;;;16.21;95.94
65754;BME280;52488;47.502;18.940;2022-09-09T00:22:22;97844.22;;;16.16;96.36
65754;BME280;52488;47.502;18.940;2022-09-09T00:23:31;97840.91;;;16.20;96.67
65754;BME280;52488;47.502;18.940;2022-09-09T00:24:49;97841.88;;;16.26;96.29
65754;BME280;52488;47.502;18.940;2022-09-09T00:26:20;97852.66;;;16.36;95.90
65754;BME280;52488;47.502;18.940;2022-09-09T00:29:05;97839.72;;;16.25;95.77
65754;BME280;52488;47.502;18.940;2022-09-09T00:30:18;97847.25;;;16.22;96.04
65754;BME280;52488;47.502;18.940;2022-09-09T00:31:28;97844.63;;;16.26;95.77
65754;BME280;52488;47.502;18.940;2022-09-09T00:32:33;97843.13;;;16.23;95.73
65754;BME280;52488;47.502;18.940;2022-09-09T00:33:39;97851.97;;;16.20;95.96
65754;BME280;52488;47.502;18.940;2022-09-09T00:35:55;97846.88;;;16.30;95.68
65754;BME280;52488;47.502;18.940;2022-09-09T00:36:59;97849.13;;;16.33;95.05
65754;BME280;52488;47.502;18.940;2022-09-09T00:38:14;97847.59;;;16.30;95.12
65754;BME280;52488;47.502;18.940;2022-09-09T00:39:42;97845.88;;;16.39;95.12
65754;BME280;52488;47.502;18.940;2022-09-09T00:41:00;97844.91;;;16.32;95.03
65754;BME280;52488;47.502;18.940;2022-09-09T00:42:26;97848.16;;;16.27;95.52
65754;BME280;52488;47.502;18.940;2022-09-09T00:43:39;97854.94;;;16.24;95.72
65754;BME280;52488;47.502;18.940;2022-09-09T00:45:59;97852.09;;;16.22;96.02
65754;BME280;52488;47.502;18.940;2022-09-09T00:48:27;97851.00;;;16.29;95.88
65754;BME280;52488;47.502;18.940;2022-09-09T00:50:57;97852.94;;;16.26;95.91
65754;BME280;52488;47.502;18.940;2022-09-09T00:56:26;97846.53;;;16.22;96.33
65754;BME280;52488;47.502;18.940;2022-09-09T00:57:34;97847.25;;;16.22;96.31
65754;BME280;52488;47.502;18.940;2022-09-09T00:58:38;97849.03;;;16.16;96.53
65754;BME280;52488;47.502;18.940;2022-09-09T00:59:48;97845.00;;;16.19;96.69
65754;BME280;52488;47.502;18.940;2022-09-09T01:01:02;97845.53;;;16.15;96.76
65754;BME280;52488;47.502;18.940;2022-09-09T01:02:21;97852.44;;;16.14;97.12
65754;BME280;52488;47.502;18.940;2022-09-09T01:03:48;97849.59;;;16.12;97.37
65754;BME280;52488;47.502;18.940;2022-09-09T01:04:53;97860.28;;;16.20;97.21
65754;BME280;52488;47.502;18.940;2022-09-09T01:07:23;97867.63;;;16.13;96.96
65754;BME280;52488;47.502;18.940;2022-09-09T01:08:50;97868.16;;;16.09;97.09
65754;BME280;52488;47.502;18.940;2022-09-09T01:09:59;97875.63;;;16.05;97.49
65754;BME280;52488;47.502;18.940;2022-09-09T01:11:03;97874.44;;;16.10;97.54
65754;BME280;52488;47.502;18.940;2022-09-09T01:12:22;97862.47;;;16.05;97.24
65754;BME280;52488;47.502;18.940;2022-09-09T01:13:29;97873.09;;;15.95;97.34
65754;BME280;52488;47.502;18.940;2022-09-09T01:15:44;97867.47;;;15.93;97.87
65754;BME280;52488;47.502;18.940;2022-09-09T01:16:50;97873.56;;;15.90;97.89
65754;BME280;52488;47.502;18.940;2022-09-09T01:18:04;97874.09;;;15.86;98.19
65754;BME280;52488;47.502;18.940;2022-09-09T01:19:10;97871.56;;;15.92;97.97
65754;BME280;52488;47.502;18.940;2022-09-09T01:20:36;97877.56;;;15.87;98.07
65754;BME280;52488;47.502;18.940;2022-09-09T01:21:45;97872.66;;;15.85;98.57
65754;BME280;52488;47.502;18.940;2022-09-09T01:24:38;97874.97;;;15.91;98.79
65754;BME280;52488;47.502;18.940;2022-09-09T01:26:46;97886.97;;;15.95;98.68
65754;BME280;52488;47.502;18.940;2022-09-09T01:27:53;97883.38;;;15.93;98.74
65754;BME280;52488;47.502;18.940;2022-09-09T01:28:57;97883.47;;;15.95;98.80
65754;BME280;52488;47.502;18.940;2022-09-09T01:30:00;97877.22;;;15.94;98.81
65754;BME280;52488;47.502;18.940;2022-09-09T01:31:06;97877.84;;;15.93;98.84
65754;BME280;52488;47.502;18.940;2022-09-09T01:33:40;97877.31;;;15.96;98.74
65754;BME280;52488;47.502;18.940;2022-09-09T01:34:43;97878.66;;;15.95;98.95
65754;BME280;52488;47.502;18.940;2022-09-09T01:37:07;97884.19;;;15.95;98.92
65754;BME280;52488;47.502;18.940;2022-09-09T01:38:12;97878.03;;;15.97;98.91
65754;BME280;52488;47.502;18.940;2022-09-09T01:39:15;97881.69;;;16.01;98.83
65754;BME280;52488;47.502;18.940;2022-09-09T01:40:18;97882.41;;;16.02;98.58
65754;BME280;52488;47.502;18.940;2022-09-09T01:41:21;97876.06;;;15.99;98.55
65754;BME280;52488;47.502;18.940;2022-09-09T01:42:24;97883.03;;;16.00;98.66
65754;BME280;52488;47.502;18.940;2022-09-09T01:43:28;97879.09;;;16.05;98.37
65754;BME280;52488;47.502;18.940;2022-09-09T01:44:31;97881.75;;;16.03;98.02
65754;BME280;52488;47.502;18.940;2022-09-09T01:45:35;97880.25;;;16.00;98.01
65754;BME280;52488;47.502;18.940;2022-09-09T01:46:38;97884.00;;;16.07;97.60
65754;BME280;52488;47.502;18.940;2022-09-09T01:47:41;97885.97;;;16.04;97.03
65754;BME280;52488;47.502;18.940;2022-09-09T01:48:45;97895.63;;;16.03;96.98
65754;BME280;52488;47.502;18.940;2022-09-09T01:49:51;97900.56;;;16.05;96.85
65754;BME280;52488;47.502;18.940;2022-09-09T01:50:54;97900.19;;;16.13;96.63
65754;BME280;52488;47.502;18.940;2022-09-09T01:52:00;97900.19;;;16.13;96.00
65754;BME280;52488;47.502;18.940;2022-09-09T01:53:03;97899.91;;;16.06;96.15
65754;BME280;52488;47.502;18.940;2022-09-09T01:54:07;97906.63;;;16.01;96.42
65754;BME280;52488;47.502;18.940;2022-09-09T01:55:10;97906.81;;;16.05;96.34
65754;BME280;52488;47.502;18.940;2022-09-09T01:56:40;97903.94;;;16.03;96.68
65754;BME280;52488;47.502;18.940;2022-09-09T01:59:24;97905.28;;;16.02;96.71
65754;BME280;52488;47.502;18.940;2022-09-09T02:00:33;97896.78;;;15.98;96.95
65754;BME280;52488;47.502;18.940;2022-09-09T02:03:03;97902.44;;;16.00;96.86
65754;BME280;52488;47.502;18.940;2022-09-09T02:04:23;97898.03;;;15.95;96.73
65754;BME280;52488;47.502;18.940;2022-09-09T02:05:37;97893.94;;;15.96;96.70
65754;BME280;52488;47.502;18.940;2022-09-09T02:06:40;97889.19;;;15.99;96.60
65754;BME280;52488;47.502;18.940;2022-09-09T02:07:48;97891.25;;;15.98;96.28
65754;BME280;52488;47.502;18.940;2022-09-09T02:08:55;97896.63;;;15.94;96.41
65754;BME280;52488;47.502;18.940;2022-09-09T02:10:09;97893.75;;;15.92;96.51
65754;BME280;52488;47.502;18.940;2022-09-09T02:11:16;97897.31;;;15.95;96.55
65754;BME280;52488;47.502;18.940;2022-09-09T02:12:22;97896.63;;;15.94;96.54
65754;BME280;52488;47.502;18.940;2022-09-09T02:13:29;97901.25;;;16.05;95.37
65754;BME280;52488;47.502;18.940;2022-09-09T02:14:39;97890.06;;;16.03;95.14
65754;BME280;52488;47.502;18.940;2022-09-09T02:15:56;97896.25;;;16.02;95.16
65754;BME280;52488;47.502;18.940;2022-09-09T02:17:09;97882.84;;;15.96;95.10
65754;BME280;52488;47.502;18.940;2022-09-09T02:18:15;97885.81;;;16.00;94.51
65754;BME280;52488;47.502;18.940;2022-09-09T02:19:29;97892.50;;;15.95;94.84
65754;BME280;52488;47.502;18.940;2022-09-09T02:20:37;97885.34;;;15.90;95.28
65754;BME280;52488;47.502;18.940;2022-09-09T02:21:42;97888.31;;;15.94;95.21
65754;BME280;52488;47.502;18.940;2022-09-09T02:22:49;97887.59;;;15.94;95.33
65754;BME280;52488;47.502;18.940;2022-09-09T02:23:54;97889.63;;;15.93;95.20
65754;BME280;52488;47.502;18.940;2022-09-09T02:25:00;97884.91;;;15.96;95.13
65754;BME280;52488;47.502;18.940;2022-09-09T02:26:03;97887.16;;;15.99;94.55
65754;BME280;52488;47.502;18.940;2022-09-09T02:27:08;97888.38;;;15.96;94.71
65754;BME280;52488;47.502;18.940;2022-09-09T02:28:13;97884.09;;;15.93;94.79
65754;BME280;52488;47.502;18.940;2022-09-09T02:29:33;97882.56;;;15.90;95.15
65754;BME280;52488;47.502;18.940;2022-09-09T02:30:38;97872.84;;;15.89;94.85
65754;BME280;52488;47.502;18.940;2022-09-09T02:31:44;97876.84;;;15.86;95.14
65754;BME280;52488;47.502;18.940;2022-09-09T02:32:51;97881.16;;;15.89;95.04
65754;BME280;52488;47.502;18.940;2022-09-09T02:33:58;97870.69;;;15.88;95.15
65754;BME280;52488;47.502;18.940;2022-09-09T02:35:09;97871.31;;;15.86;95.23
65754;BME280;52488;47.502;18.940;2022-09-09T02:36:15;97868.00;;;15.90;95.06
65754;BME280;52488;47.502;18.940;2022-09-09T02:37:22;97870.69;;;15.88;95.14
65754;BME280;52488;47.502;18.940;2022-09-09T02:38:30;97876.97;;;15.88;95.25
65754;BME280;52488;47.502;18.940;2022-09-09T02:39:37;97879.19;;;15.92;94.91
65754;BME280;52488;47.502;18.940;2022-09-09T02:40:40;97878.28;;;15.87;94.99
65754;BME280;52488;47.502;18.940;2022-09-09T02:41:45;97880.97;;;15.85;95.28
65754;BME280;52488;47.502;18.940;2022-09-09T02:42:49;97878.91;;;15.86;95.37
65754;BME280;52488;47.502;18.940;2022-09-09T02:43:54;97873.44;;;15.88;95.10
65754;BME280;52488;47.502;18.940;2022-09-09T02:44:57;97881.75;;;15.88;94.82
65754;BME280;52488;47.502;18.940;2022-09-09T02:47:32;97878.56;;;15.77;95.29
65754;BME280;52488;47.502;18.940;2022-09-09T02:48:51;97882.66;;;15.76;95.34
65754;BME280;52488;47.502;18.940;2022-09-09T02:50:12;97871.94;;;15.69;95.51
65754;BME280;52488;47.502;18.940;2022-09-09T02:51:21;97881.59;;;15.68;95.77
65754;BME280;52488;47.502;18.940;2022-09-09T02:52:36;97884.16;;;15.64;96.03
65754;BME280;52488;47.502;18.940;2022-09-09T02:53:58;97885.50;;;15.63;96.24
65754;BME280;52488;47.502;18.940;2022-09-09T02:55:12;97884.28;;;15.66;96.14
65754;BME280;52488;47.502;18.940;2022-09-09T02:56:20;97888.47;;;15.67;95.59
65754;BME280;52488;47.502;18.940;2022-09-09T02:57:28;97887.44;;;15.60;95.85
65754;BME280;52488;47.502;18.940;2022-09-09T02:58:34;97879.75;;;15.58;95.87
65754;BME280;52488;47.502;18.940;2022-09-09T02:59:39;97882.44;;;15.56;95.94
65754;BME280;52488;47.502;18.940;2022-09-09T03:00:47;97876.97;;;15.58;95.79
65754;BME280;52488;47.502;18.940;2022-09-09T03:01:50;97871.22;;;15.68;95.07
65754;BME280;52488;47.502;18.940;2022-09-09T03:02:53;97877.09;;;15.61;95.31
65754;BME280;52488;47.502;18.940;2022-09-09T03:03:57;97869.31;;;15.57;95.51
65754;BME280;52488;47.502;18.940;2022-09-09T03:04:59;97874.94;;;15.59;95.34
65754;BME280;52488;47.502;18.940;2022-09-09T03:06:02;97882.50;;;15.58;95.17
65754;BME280;52488;47.502;18.940;2022-09-09T03:07:06;97885.06;;;15.68;94.95
65754;BME280;52488;47.502;18.940;2022-09-09T03:08:09;97883.84;;;15.71;94.52
65754;BME280;52488;47.502;18.940;2022-09-09T03:09:12;97884.28;;;15.66;94.05
65754;BME280;52488;47.502;18.940;2022-09-09T03:10:15;97886.94;;;15.64;94.55
65754;BME280;52488;47.502;18.940;2022-09-09T03:11:17;97881.72;;;15.56;94.59
65754;BME280;52488;47.502;18.940;2022-09-09T03:12:20;97881.53;;;15.52;94.90
65754;BME280;52488;47.502;18.940;2022-09-09T03:13:23;97883.38;;;15.47;95.05
65754;BME280;52488;47.502;18.940;2022-09-09T03:14:27;97889.28;;;15.40;95.27
65754;BME280;52488;47.502;18.940;2022-09-09T03:15:32;97895.25;;;15.34;95.54
65754;BME280;52488;47.502;18.940;2022-09-09T03:16:35;97891.56;;;15.29;95.79
65754;BME280;52488;47.502;18.940;2022-09-09T03:17:38;97898.53;;;15.30;95.75
65754;BME280;52488;47.502;18.940;2022-09-09T03:18:41;97896.81;;;15.23;95.90
65754;BME280;52488;47.502;18.940;2022-09-09T03:19:45;97891.28;;;15.23;96.23
65754;BME280;52488;47.502;18.940;2022-09-09T03:20:48;97899.34;;;15.33;95.75
65754;BME280;52488;47.502;18.940;2022-09-09T03:21:51;97893.44;;;15.25;95.91
65754;BME280;52488;47.502;18.940;2022-09-09T03:22:55;97893.44;;;15.25;95.85
65754;BME280;52488;47.502;18.940;2022-09-09T03:24:01;97900.03;;;15.18;96.12
65754;BME280;52488;47.502;18.940;2022-09-09T03:25:06;97897.34;;;15.20;96.15
65754;BME280;52488;47.502;18.940;2022-09-09T03:26:09;97895.53;;;15.11;96.48
65754;BME280;52488;47.502;18.940;2022-09-09T03:27:12;97889.59;;;15.16;96.55
65754;BME280;52488;47.502;18.940;2022-09-09T03:28:18;97899.63;;;15.10;96.71
65754;BME280;52488;47.502;18.940;2022-09-09T03:29:21;97886.22;;;15.04;97.17
65754;BME280;52488;47.502;18.940;2022-09-09T03:30:25;97894.00;;;15.08;97.37
65754;BME280;52488;47.502;18.940;2022-09-09T03:31:29;97887.56;;;15.03;97.40
65754;BME280;52488;47.502;18.940;2022-09-09T03:32:32;97886.94;;;15.04;97.58
65754;BME280;52488;47.502;18.940;2022-09-09T03:33:39;97893.91;;;15.05;97.63
65754;BME280;52488;47.502;18.940;2022-09-09T03:34:44;97894.28;;;15.14;97.52
65754;BME280;52488;47.502;18.940;2022-09-09T03:35:47;97892.84;;;15.13;97.37
65754;BME280;52488;47.502;18.940;2022-09-09T03:36:53;97891.44;;;15.12;97.39
65754;BME280;52488;47.502;18.940;2022-09-09T03:37:56;97890.81;;;15.13;97.33
65754;BME280;52488;47.502;18.940;2022-09-09T03:38:59;97897.16;;;15.16;97.23
65754;BME280;52488;47.502;18.940;2022-09-09T03:40:03;97896.53;;;15.17;96.96
65754;BME280;52488;47.502;18.940;2022-09-09T03:41:06;97895.91;;;15.19;96.69
65754;BME280;52488;47.502;18.940;2022-09-09T03:42:13;97891.91;;;15.22;96.37
65754;BME280;52488;47.502;18.940;2022-09-09T03:43:16;97893.22;;;15.21;96.31
65754;BME280;52488;47.502;18.940;2022-09-09T03:44:19;97895.19;;;15.18;96.36
65754;BME280;52488;47.502;18.940;2022-09-09T03:45:22;97894.56;;;15.20;96.31
65754;BME280;52488;47.502;18.940;2022-09-09T03:46:26;97894.56;;;15.20;96.22
65754;BME280;52488;47.502;18.940;2022-09-09T03:47:29;97881.41;;;15.34;95.67
65754;BME280;52488;47.502;18.940;2022-09-09T03:48:32;97884.88;;;15.35;95.07
65754;BME280;52488;47.502;18.940;2022-09-09T03:49:35;97898.66;;;15.32;95.19
65754;BME280;52488;47.502;18.940;2022-09-09T03:50:38;97898.09;;;15.36;95.11
65754;BME280;52488;47.502;18.940;2022-09-09T03:51:41;97900.25;;;15.38;94.98
65754;BME280;52488;47.502;18.940;2022-09-09T03:52:45;97898.09;;;15.36;95.04
65754;BME280;52488;47.502;18.940;2022-09-09T03:53:48;97902.22;;;15.35;95.02
65754;BME280;52488;47.502;18.940;2022-09-09T03:54:52;97906.31;;;15.34;95.18
65754;BME280;52488;47.502;18.940;2022-09-09T03:55:56;97903.44;;;15.32;95.31
65754;BME280;52488;47.502;18.940;2022-09-09T03:57:03;97904.59;;;15.27;95.60
65754;BME280;52488;47.502;18.940;2022-09-09T03:58:06;97901.72;;;15.25;95.92
65754;BME280;52488;47.502;18.940;2022-09-09T03:59:10;97909.94;;;15.23;96.25
65754;BME280;52488;47.502;18.940;2022-09-09T04:00:13;97905.75;;;15.22;96.35
65754;BME280;52488;47.502;18.940;2022-09-09T04:01:16;97905.56;;;15.18;96.66
65754;BME280;52488;47.502;18.940;2022-09-09T04:02:20;97909.75;;;15.19;96.66
65754;BME280;52488;47.502;18.940;2022-09-09T04:03:25;97910.88;;;15.14;96.64
65754;BME280;52488;47.502;18.940;2022-09-09T04:04:29;97909.66;;;15.17;96.55
65754;BME280;52488;47.502;18.940;2022-09-09T04:05:32;97912.31;;;15.15;96.66
65754;BME280;52488;47.502;18.940;2022-09-09T04:06:36;97909.47;;;15.13;96.81
65754;BME280;52488;47.502;18.940;2022-09-09T04:07:39;97907.91;;;15.10;96.87
65754;BME280;52488;47.502;18.940;2022-09-09T04:08:42;97907.91;;;15.10;96.79
65754;BME280;52488;47.502;18.940;2022-09-09T04:09:46;97906.41;;;15.07;96.59
65754;BME280;52488;47.502;18.940;2022-09-09T04:10:49;97907.47;;;14.99;96.53
65754;BME280;52488;47.502;18.940;2022-09-09T04:11:52;97906.00;;;14.98;96.83
65754;BME280;52488;47.502;18.940;2022-09-09T04:12:55;97901.72;;;14.95;96.61
65754;BME280;52488;47.502;18.940;2022-09-09T04:13:58;97903.38;;;14.87;96.67
65754;BME280;52488;47.502;18.940;2022-09-09T04:15:01;97901.94;;;14.86;96.92
65754;BME280;52488;47.502;18.940;2022-09-09T04:16:05;97901.84;;;14.84;97.03
65754;BME280;52488;47.502;18.940;2022-09-09T04:17:08;97900.31;;;14.81;97.38
65754;BME280;52488;47.502;18.940;2022-09-09T04:18:13;97898.66;;;14.89;97.12
65754;BME280;52488;47.502;18.940;2022-09-09T04:19:23;97897.53;;;14.81;97.23
65754;BME280;52488;47.502;18.940;2022-09-09T04:20:26;97901.44;;;14.75;97.52
65754;BME280;52488;47.502;18.940;2022-09-09T04:21:30;97896.63;;;14.76;97.79
65754;BME280;52488;47.502;18.940;2022-09-09T04:22:33;97906.16;;;14.73;97.81
65754;BME280;52488;47.502;18.940;2022-09-09T04:23:36;97900.62;;;14.73;97.92
65754;BME280;52488;47.502;18.940;2022-09-09T04:24:39;97906.06;;;14.71;98.03
65754;BME280;52488;47.502;18.940;2022-09-09T04:25:48;97900.62;;;14.73;98.08
65754;BME280;52488;47.502;18.940;2022-09-09T04:26:51;97897.66;;;14.69;97.94
65754;BME280;52488;47.502;18.940;2022-09-09T04:27:58;97899.09;;;14.70;98.02
65754;BME280;52488;47.502;18.940;2022-09-09T04:29:01;97897.75;;;14.71;98.11
65754;BME280;52488;47.502;18.940;2022-09-09T04:30:04;97901.78;;;14.68;98.16
65754;BME280;52488;47.502;18.940;2022-09-09T04:31:18;97908.94;;;14.73;98.18
65754;BME280;52488;47.502;18.940;2022-09-09T04:32:22;97911.78;;;14.75;97.89
65754;BME280;52488;47.502;18.940;2022-09-09T04:33:26;97906.78;;;14.71;97.98
65754;BME280;52488;47.502;18.940;2022-09-09T04:34:32;97903.81;;;14.67;98.21
65754;BME280;52488;47.502;18.940;2022-09-09T04:35:35;97903.91;;;14.69;98.37
65754;BME280;52488;47.502;18.940;2022-09-09T04:36:39;97906.06;;;14.71;98.36
65754;BME280;52488;47.502;18.940;2022-09-09T04:37:43;97906.06;;;14.71;98.27
65754;BME280;52488;47.502;18.940;2022-09-09T04:38:47;97913.03;;;14.72;98.33
65754;BME280;52488;47.502;18.940;2022-09-09T04:39:51;97897.66;;;14.69;98.46
65754;BME280;52488;47.502;18.940;2022-09-09T04:40:54;97897.66;;;14.69;98.53
65754;BME280;52488;47.502;18.940;2022-09-09T04:41:58;97900.53;;;14.71;98.53
65754;BME280;52488;47.502;18.940;2022-09-09T04:43:03;97890.37;;;14.75;98.42
65754;BME280;52488;47.502;18.940;2022-09-09T04:44:15;97891.81;;;14.76;98.32
65754;BME280;52488;47.502;18.940;2022-09-09T04:45:18;97883.84;;;14.83;98.02
65754;BME280;52488;47.502;18.940;2022-09-09T04:46:22;97881.78;;;14.83;98.02
65754;BME280;52488;47.502;18.940;2022-09-09T04:47:25;97889.53;;;14.87;98.07
65754;BME280;52488;47.502;18.940;2022-09-09T04:48:29;97883.91;;;14.85;98.25
65754;BME280;52488;47.502;18.940;2022-09-09T04:49:34;97882.78;;;14.90;97.90
65754;BME280;52488;47.502;18.940;2022-09-09T04:50:37;97880.81;;;14.92;97.94
65754;BME280;52488;47.502;18.940;2022-09-09T04:51:40;97889.22;;;14.94;97.80
65754;BME280;52488;47.502;18.940;2022-09-09T04:52:42;97893.31;;;14.93;97.88
65754;BME280;52488;47.502;18.940;2022-09-09T04:53:45;97896.19;;;14.95;98.02
65754;BME280;52488;47.502;18.940;2022-09-09T04:54:50;97896.28;;;14.97;98.00
65754;BME280;52488;47.502;18.940;2022-09-09T04:56:14;97892.78;;;14.97;98.25
65754;BME280;52488;47.502;18.940;2022-09-09T04:57:17;97898.41;;;14.99;98.49
65754;BME280;52488;47.502;18.940;2022-09-09T04:58:23;97898.53;;;15.01;98.56
65754;BME280;52488;47.502;18.940;2022-09-09T04:59:26;97902.81;;;15.04;98.49
65754;BME280;52488;47.502;18.940;2022-09-09T05:00:29;97903.63;;;15.07;98.45
65754;BME280;52488;47.502;18.940;2022-09-09T05:01:31;97904.63;;;15.13;98.16
65754;BME280;52488;47.502;18.940;2022-09-09T05:02:37;97906.69;;;15.13;98.07
65754;BME280;52488;47.502;18.940;2022-09-09T05:03:41;97909.84;;;15.21;97.89
65754;BME280;52488;47.502;18.940;2022-09-09T05:04:47;97908.53;;;15.22;97.53
65754;BME280;52488;47.502;18.940;2022-09-09T05:05:52;97909.31;;;15.24;96.99
65754;BME280;52488;47.502;18.940;2022-09-09T05:06:55;97910.03;;;15.25;97.07
65754;BME280;52488;47.502;18.940;2022-09-09T05:08:05;97912.28;;;15.28;96.93
65754;BME280;52488;47.502;18.940;2022-09-09T05:09:09;97904.06;;;15.30;96.66
65754;BME280;52488;47.502;18.940;2022-09-09T05:10:12;97916.75;;;15.36;96.75
65754;BME280;52488;47.502;18.940;2022-09-09T05:11:20;97916.41;;;15.43;96.30
65754;BME280;52488;47.502;18.940;2022-09-09T05:12:25;97911.50;;;15.42;96.24
65754;BME280;52488;47.502;18.940;2022-09-09T05:13:28;97911.63;;;15.44;96.33
65754;BME280;52488;47.502;18.940;2022-09-09T05:14:33;97913.03;;;15.45;96.41
65754;BME280;52488;47.502;18.940;2022-09-09T05:15:38;97916.62;;;15.47;96.36
65754;BME280;52488;47.502;18.940;2022-09-09T05:16:41;97909.66;;;15.46;96.39
65754;BME280;52488;47.502;18.940;2022-09-09T05:17:46;97912.41;;;15.46;96.59
65754;BME280;52488;47.502;18.940;2022-09-09T05:18:50;97912.78;;;15.54;96.53
65754;BME280;52488;47.502;18.940;2022-09-09T05:19:53;97918.81;;;15.65;94.87
65754;BME280;52488;47.502;18.940;2022-09-09T05:20:59;97920.28;;;15.66;94.45
65754;BME280;52488;47.502;18.940;2022-09-09T05:22:03;97916.75;;;15.65;94.74
65754;BME280;52488;47.502;18.940;2022-09-09T05:23:07;97916.44;;;15.73;94.56
65754;BME280;52488;47.502;18.940;2022-09-09T05:24:10;97917.34;;;15.77;93.95
65754;BME280;52488;47.502;18.940;2022-09-09T05:25:13;97920.81;;;15.78;94.00
65754;BME280;52488;47.502;18.940;2022-09-09T05:26:19;97912.50;;;15.78;94.18
65754;BME280;52488;47.502;18.940;2022-09-09T05:27:22;97920.47;;;15.86;94.00
65754;BME280;52488;47.502;18.940;2022-09-09T05:28:26;97914.41;;;15.89;93.72
65754;BME280;52488;47.502;18.940;2022-09-09T05:29:29;97911.78;;;15.93;93.50
65754;BME280;52488;47.502;18.940;2022-09-09T05:30:34;97919.38;;;15.93;93.55
65754;BME280;52488;47.502;18.940;2022-09-09T05:31:37;97916.62;;;15.93;93.79
65754;BME280;52488;47.502;18.940;2022-09-09T05:32:41;97917.31;;;15.93;93.95
65754;BME280;52488;47.502;18.940;2022-09-09T05:33:45;97922.97;;;15.95;93.82
65754;BME280;52488;47.502;18.940;2022-09-09T05:34:48;97929.41;;;16.00;93.74
65754;BME280;52488;47.502;18.940;2022-09-09T05:36:06;97927.72;;;16.08;93.23
65754;BME280;52488;47.502;18.940;2022-09-09T05:37:10;97925.91;;;16.15;92.42
65754;BME280;52488;47.502;18.940;2022-09-09T05:38:13;97927.91;;;16.13;92.54
65754;BME280;52488;47.502;18.940;2022-09-09T05:39:18;97933.44;;;16.13;92.68
65754;BME280;52488;47.502;18.940;2022-09-09T05:40:21;97930.75;;;16.15;92.60
65754;BME280;52488;47.502;18.940;2022-09-09T05:41:24;97931.00;;;16.21;92.60
65754;BME280;52488;47.502;18.940;2022-09-09T05:42:30;97927.19;;;16.28;91.05
65754;BME280;52488;47.502;18.940;2022-09-09T05:43:35;97927.34;;;16.32;90.92
65754;BME280;52488;47.502;18.940;2022-09-09T05:44:38;97917.97;;;16.39;90.24
65754;BME280;52488;47.502;18.940;2022-09-09T05:45:41;97914.88;;;16.49;89.23
65754;BME280;52488;47.502;18.940;2022-09-09T05:46:44;97913.00;;;16.53;89.06
65754;BME280;52488;47.502;18.940;2022-09-09T05:47:51;97918.94;;;16.46;89.53
65754;BME280;52488;47.502;18.940;2022-09-09T05:48:55;97916.88;;;16.46;89.65
65754;BME280;52488;47.502;18.940;2022-09-09T05:49:59;97914.63;;;16.43;90.47
65754;BME280;52488;47.502;18.940;2022-09-09T05:51:02;97918.13;;;16.43;90.73
65754;BME280;52488;47.502;18.940;2022-09-09T05:52:05;97921.78;;;16.48;90.88
65754;BME280;52488;47.502;18.940;2022-09-09T05:53:09;97922.59;;;16.50;90.77
65754;BME280;52488;47.502;18.940;2022-09-09T05:54:13;97921.44;;;16.55;90.84
65754;BME280;52488;47.502;18.940;2022-09-09T05:55:18;97917.19;;;16.54;91.11
65754;BME280;52488;47.502;18.940;2022-09-09T05:56:23;97922.13;;;16.56;91.10
65754;BME280;52488;47.502;18.940;2022-09-09T05:57:27;97915.97;;;16.57;90.73
65754;BME280;52488;47.502;18.940;2022-09-09T05:58:34;97924.28;;;16.57;91.30
65754;BME280;52488;47.502;18.940;2022-09-09T05:59:37;97916.59;;;16.56;91.53
65754;BME280;52488;47.502;18.940;2022-09-09T06:00:40;97916.91;;;16.64;91.83
65754;BME280;52488;47.502;18.940;2022-09-09T06:01:43;97912.09;;;16.64;90.98
65754;BME280;52488;47.502;18.940;2022-09-09T06:02:51;97914.78;;;16.62;91.38
65754;BME280;52488;47.502;18.940;2022-09-09T06:03:55;97915.41;;;16.61;91.56
65754;BME280;52488;47.502;18.940;2022-09-09T06:04:58;97917.63;;;16.64;91.74
65754;BME280;52488;47.502;18.940;2022-09-09T06:06:10;97916.91;;;16.64;91.47
65754;BME280;52488;47.502;18.940;2022-09-09T06:07:14;97926.59;;;16.79;89.80
65754;BME280;52488;47.502;18.940;2022-09-09T06:08:17;97928.66;;;16.78;89.88
65754;BME280;52488;47.502;18.940;2022-09-09T06:09:20;97927.37;;;16.81;90.05
65754;BME280;52488;47.502;18.940;2022-09-09T06:10:23;97928.19;;;16.84;90.09
65754;BME280;52488;47.502;18.940;2022-09-09T06:11:28;97925.47;;;16.86;90.50
65754;BME280;52488;47.502;18.940;2022-09-09T06:12:35;97921.47;;;16.89;90.04
65754;BME280;52488;47.502;18.940;2022-09-09T06:13:38;97918.69;;;16.89;89.90
65754;BME280;52488;47.502;18.940;2022-09-09T06:14:42;97925.25;;;16.98;89.71
65754;BME280;52488;47.502;18.940;2022-09-09T06:15:51;97923.31;;;17.00;89.10
65754;BME280;52488;47.502;18.940;2022-09-09T06:16:54;97914.97;;;17.00;89.88
65754;BME280;52488;47.502;18.940;2022-09-09T06:17:58;97927.50;;;17.01;90.25